Terminal Aerodrome Forecast
Issued by NWS Sterling, VA

Home | Current Version | Previous Version | Text Only | Print | Product List | Glossary On
Versions: 1 2 3 4 5 6 7 8 9 10 11 12 13 14 15 16
773
FTUS41 KLWX 271132
TAFMRB
TAF
KMRB 271132Z 2712/2812 VRB03KT P6SM -SHRA OVC050
     FM271300 VRB03KT 4SM -SHRA OVC050
     FM271800 06004KT P6SM BKN040
     FM280200 VRB03KT P6SM BKN020
     FM280400 VRB03KT P6SM BKN008
     FM280800 00000KT P6SM BKN003=

USA.gov is the U.S. government's official web portal to all federal, state and local government web resources and services.